Time;durP1;ratioP1;P1;durP2;ratioP2;P2;SDS_P1;SDS_P2;PMS_P1;PMS_P2;Temp;Humidity;BMP_temperature;BMP_pressure;BME280_temperature;BME280_humidity;BME280_pressure;Samples;Min_cycle;Max_cycle;Signal;HPM_P1;HPM_P2
2021/09/16 00:01:41;;;;;;;20.80;10.90;;;;;;;;;;8196043;28;20467;-72
2021/09/16 00:05:46;;;;;;;17.33;9.38;;;;;;;;;;8143322;28;20384;-72
2021/09/16 00:09:52;;;;;;;19.90;11.48;;;;;;;;;;8194510;28;20473;-73
2021/09/16 00:13:58;;;;;;;19.38;10.73;;;;;;;;;;8195639;28;20053;-72
2021/09/16 00:18:04;;;;;;;20.08;11.00;;;;;;;;;;8196901;28;20397;-72
2021/09/16 00:22:10;;;;;;;22.23;11.20;;;;;;;;;;8193688;28;20483;-72
2021/09/16 00:26:15;;;;;;;18.87;10.40;;;;;;;;;;7513383;28;20004378;-72
2021/09/16 00:30:20;;;;;;;18.73;10.38;;;;;;;;;;8225414;28;20380;-71
2021/09/16 00:34:25;;;;;;;24.27;11.07;;;;;;;;;;8209559;28;20425;-71
2021/09/16 00:38:31;;;;;;;19.45;9.77;;;;;;;;;;8226315;28;20510;-72
2021/09/16 00:42:36;;;;;;;19.27;10.55;;;;;;;;;;8225374;28;20049;-71
2021/09/16 00:46:42;;;;;;;20.48;10.93;;;;;;;;;;8208657;28;20522;-72
2021/09/16 00:50:47;;;;;;;22.02;10.45;;;;;;;;;;8225688;28;20703;-72
2021/09/16 00:54:55;;;;;;;17.85;10.18;;;;;;;;;;8228198;28;20356;-71
2021/09/16 00:59:02;;;;;;;18.65;9.68;;;;;;;;;;8192748;28;20571;-71
2021/09/16 01:03:07;;;;;;;19.27;10.00;;;;;;;;;;8227767;28;20387;-72
2021/09/16 01:07:14;;;;;;;27.45;11.40;;;;;;;;;;8208741;28;20487;-71
2021/09/16 01:11:21;;;;;;;16.50;9.93;;;;;;;;;;8225032;28;20464;-71
2021/09/16 01:15:25;;;;;;;17.98;10.40;;;;;;;;;;8225001;28;20346;-72
2021/09/16 01:19:30;;;;;;;18.25;10.18;;;;;;;;;;8208297;28;20452;-71
2021/09/16 01:23:35;;;;;;;19.05;9.73;;;;;;;;;;8206580;28;20372;-71
2021/09/16 01:27:41;;;;;;;22.08;11.35;;;;;;;;;;8207577;28;20049;-72
2021/09/16 01:31:50;;;;;;;16.52;10.15;;;;;;;;;;8208182;28;20350;-72
2021/09/16 01:35:55;;;;;;;16.70;9.80;;;;;;;;;;8207058;28;20379;-72
2021/09/16 01:40:00;;;;;;;16.08;9.57;;;;;;;;;;8226325;28;20380;-72
2021/09/16 01:44:06;;;;;;;16.65;10.10;;;;;;;;;;8190934;28;20068;-72
2021/09/16 01:48:11;;;;;;;16.00;10.05;;;;;;;;;;8227280;28;20579;-72
2021/09/16 01:52:17;;;;;;;17.67;9.65;;;;;;;;;;8196574;28;20075;-71
2021/09/16 01:56:22;;;;;;;16.98;9.50;;;;;;;;;;8213503;28;20368;-71
2021/09/16 02:00:27;;;;;;;18.25;9.82;;;;;;;;;;8213068;28;20472;-72
2021/09/16 02:04:33;;;;;;;29.02;11.02;;;;;;;;;;8230917;28;20388;-72
2021/09/16 02:08:38;;;;;;;15.80;9.52;;;;;;;;;;8232583;28;20314;-72
2021/09/16 02:12:43;;;;;;;16.13;9.82;;;;;;;;;;8231035;28;20386;-73
2021/09/16 02:16:48;;;;;;;14.45;8.98;;;;;;;;;;8213687;28;20368;-71
2021/09/16 02:20:54;;;;;;;16.85;9.60;;;;;;;;;;8212941;28;20472;-71
2021/09/16 02:24:58;;;;;;;17.08;9.48;;;;;;;;;;8228446;28;20488;-72
2021/09/16 02:29:04;;;;;;;15.52;9.25;;;;;;;;;;8229945;28;20495;-71
2021/09/16 02:33:10;;;;;;;16.50;9.65;;;;;;;;;;8231380;28;20469;-72
2021/09/16 02:37:15;;;;;;;19.27;8.85;;;;;;;;;;8196439;28;20330;-71
2021/09/16 02:41:21;;;;;;;18.08;9.63;;;;;;;;;;8230002;28;20046;-73
2021/09/16 02:45:26;;;;;;;18.25;9.57;;;;;;;;;;8213509;28;20064;-73
2021/09/16 02:49:31;;;;;;;14.25;8.95;;;;;;;;;;8211711;28;20494;-72
2021/09/16 02:53:37;;;;;;;19.38;9.65;;;;;;;;;;8230131;28;20411;-73
2021/09/16 02:57:43;;;;;;;20.88;9.40;;;;;;;;;;8213334;28;20629;-71
2021/09/16 03:01:48;;;;;;;15.88;9.40;;;;;;;;;;8229216;28;20365;-71
2021/09/16 03:05:53;;;;;;;16.38;8.48;;;;;;;;;;8227623;28;20487;-71
2021/09/16 03:09:58;;;;;;;16.00;9.13;;;;;;;;;;8230301;28;20373;-73
2021/09/16 03:14:03;;;;;;;14.25;8.75;;;;;;;;;;8211845;28;20353;-71
2021/09/16 03:18:09;;;;;;;15.63;8.95;;;;;;;;;;8210414;28;20053;-72
2021/09/16 03:22:14;;;;;;;14.98;8.65;;;;;;;;;;8210920;28;20464;-72
2021/09/16 03:26:19;;;;;;;13.95;8.82;;;;;;;;;;8211148;28;20345;-72
2021/09/16 03:30:24;;;;;;;16.80;8.57;;;;;;;;;;8227764;28;20452;-72
2021/09/16 03:34:29;;;;;;;13.30;8.50;;;;;;;;;;8194694;28;20459;-72
2021/09/16 03:38:34;;;;;;;16.05;9.68;;;;;;;;;;8227701;28;20444;-71
2021/09/16 03:42:39;;;;;;;17.05;8.88;;;;;;;;;;8227205;28;20060;-71
2021/09/16 03:47:07;;;;;;;15.46;8.54;;;;;;;;;;6953456;28;10222650;-72
2021/09/16 03:51:11;;;;;;;18.90;9.33;;;;;;;;;;6323110;28;14320904;-73
2021/09/16 03:55:17;;;;;;;14.18;8.00;;;;;;;;;;8210586;28;20986;-71
2021/09/16 03:59:22;;;;;;;14.98;8.88;;;;;;;;;;8227729;28;20372;-73
2021/09/16 04:03:27;;;;;;;13.20;8.27;;;;;;;;;;8208926;28;20396;-71
2021/09/16 04:07:33;;;;;;;12.20;8.52;;;;;;;;;;8209739;28;20472;-72
2021/09/16 04:11:38;;;;;;;14.65;8.52;;;;;;;;;;8209151;28;20041;-72
2021/09/16 04:15:44;;;;;;;13.55;8.23;;;;;;;;;;8210398;28;20460;-72
2021/09/16 04:19:49;;;;;;;15.55;8.68;;;;;;;;;;8226969;28;20368;-72
2021/09/16 04:23:54;;;;;;;17.23;8.52;;;;;;;;;;8228199;28;20464;-73
2021/09/16 04:27:59;;;;;;;17.92;8.75;;;;;;;;;;8210186;28;20364;-73
2021/09/16 04:32:05;;;;;;;15.30;9.02;;;;;;;;;;8192474;28;20453;-71
2021/09/16 04:36:11;;;;;;;16.08;9.50;;;;;;;;;;8192674;28;20045;-72
2021/09/16 04:40:16;;;;;;;15.98;8.95;;;;;;;;;;8226015;28;20392;-71
2021/09/16 04:44:23;;;;;;;14.23;8.75;;;;;;;;;;8226383;28;20460;-71
2021/09/16 04:48:28;;;;;;;17.25;9.13;;;;;;;;;;8225856;28;20372;-72
2021/09/16 04:52:33;;;;;;;13.65;8.13;;;;;;;;;;8225365;28;20368;-72
2021/09/16 04:56:38;;;;;;;14.43;9.02;;;;;;;;;;8208455;28;20049;-71
2021/09/16 05:00:44;;;;;;;17.17;9.35;;;;;;;;;;8208234;28;20373;-71
2021/09/16 05:04:49;;;;;;;15.60;8.75;;;;;;;;;;8225383;28;20380;-71
2021/09/16 05:08:55;;;;;;;17.25;8.57;;;;;;;;;;8208218;28;20468;-71
2021/09/16 05:13:00;;;;;;;15.30;8.18;;;;;;;;;;8209207;28;20368;-73
2021/09/16 05:17:05;;;;;;;22.23;9.25;;;;;;;;;;8191264;28;20357;-72
2021/09/16 05:21:11;;;;;;;15.32;8.65;;;;;;;;;;8227569;28;20461;-72
2021/09/16 05:25:16;;;;;;;13.43;7.57;;;;;;;;;;8209677;28;20352;-72
2021/09/16 05:29:21;;;;;;;20.25;9.57;;;;;;;;;;8226437;28;20376;-72
2021/09/16 05:33:26;;;;;;;20.10;9.80;;;;;;;;;;8225766;28;20491;-74
2021/09/16 05:37:32;;;;;;;18.65;9.40;;;;;;;;;;8225688;28;20333;-72
2021/09/16 05:41:38;;;;;;;17.77;8.95;;;;;;;;;;8207698;28;20461;-71
2021/09/16 05:45:43;;;;;;;16.88;8.32;;;;;;;;;;8226103;28;20480;-72
2021/09/16 05:49:48;;;;;;;14.38;8.45;;;;;;;;;;8226000;28;20369;-73
2021/09/16 05:53:53;;;;;;;14.10;8.27;;;;;;;;;;8207493;28;20385;-71
2021/09/16 05:57:58;;;;;;;19.83;7.93;;;;;;;;;;8225422;28;20517;-73
2021/09/16 06:02:04;;;;;;;12.32;8.05;;;;;;;;;;8193862;28;20383;-72
2021/09/16 06:06:09;;;;;;;14.35;7.38;;;;;;;;;;8225022;28;20518;-72
2021/09/16 06:10:16;;;;;;;14.95;8.18;;;;;;;;;;8208496;28;20476;-72
2021/09/16 06:14:21;;;;;;;18.38;9.80;;;;;;;;;;8208994;28;20474;-72
2021/09/16 06:18:26;;;;;;;17.30;9.05;;;;;;;;;;8226665;28;20045;-72
2021/09/16 06:22:31;;;;;;;13.68;8.30;;;;;;;;;;8207674;28;20396;-71
2021/09/16 06:26:37;;;;;;;13.38;8.20;;;;;;;;;;8226145;28;20507;-71
2021/09/16 06:30:43;;;;;;;13.60;8.60;;;;;;;;;;8227016;28;20346;-71
2021/09/16 06:34:48;;;;;;;14.15;8.25;;;;;;;;;;8212198;28;20513;-72
2021/09/16 06:38:53;;;;;;;12.70;8.32;;;;;;;;;;8231733;28;20491;-72
2021/09/16 06:42:58;;;;;;;12.82;8.20;;;;;;;;;;8197762;28;20488;-71
2021/09/16 06:47:03;;;;;;;12.50;7.75;;;;;;;;;;8229543;28;20468;-72
2021/09/16 06:51:07;;;;;;;17.08;8.23;;;;;;;;;;8196550;28;20057;-71
2021/09/16 06:55:32;;;;;;;13.55;8.05;;;;;;;;;;8213680;28;20417;-72
2021/09/16 06:59:38;;;;;;;18.92;9.20;;;;;;;;;;8225160;28;20058;-71
2021/09/16 07:03:43;;;;;;;18.13;8.38;;;;;;;;;;8208422;28;20376;-71
2021/09/16 07:07:49;;;;;;;13.93;8.95;;;;;;;;;;8208811;28;20516;-71
2021/09/16 07:11:54;;;;;;;16.60;8.52;;;;;;;;;;8228167;28;20068;-72
2021/09/16 07:15:59;;;;;;;19.45;9.10;;;;;;;;;;8195540;28;20053;-72
2021/09/16 07:20:05;;;;;;;13.80;8.27;;;;;;;;;;8210692;28;20455;-72
2021/09/16 07:24:12;;;;;;;14.25;8.43;;;;;;;;;;8232025;28;20496;-71
2021/09/16 07:28:17;;;;;;;11.50;8.40;;;;;;;;;;8230825;28;20063;-72
2021/09/16 07:32:22;;;;;;;13.05;8.32;;;;;;;;;;8230251;28;20354;-71
2021/09/16 07:36:27;;;;;;;16.60;9.07;;;;;;;;;;8212717;28;20041;-73
2021/09/16 07:40:33;;;;;;;15.93;8.80;;;;;;;;;;8212234;28;20108;-72
2021/09/16 07:44:38;;;;;;;17.67;9.45;;;;;;;;;;8228152;28;20061;-72
2021/09/16 07:48:43;;;;;;;13.45;8.73;;;;;;;;;;8211148;28;20068;-72
2021/09/16 07:52:49;;;;;;;13.45;8.30;;;;;;;;;;8213359;28;20495;-72
2021/09/16 07:56:54;;;;;;;20.73;9.70;;;;;;;;;;8211861;28;20371;-71
2021/09/16 08:00:59;;;;;;;18.17;9.65;;;;;;;;;;8213842;28;20063;-72
2021/09/16 08:05:05;;;;;;;19.30;9.48;;;;;;;;;;8213151;28;20338;-72
2021/09/16 08:09:10;;;;;;;17.17;9.93;;;;;;;;;;8212767;28;20484;-72
2021/09/16 08:13:15;;;;;;;24.83;10.02;;;;;;;;;;8228637;28;20349;-71
2021/09/16 08:17:23;;;;;;;22.42;10.82;;;;;;;;;;8227486;28;20380;-72
2021/09/16 08:21:28;;;;;;;21.73;10.13;;;;;;;;;;8229694;28;20461;-71
2021/09/16 08:25:34;;;;;;;18.25;9.88;;;;;;;;;;8229504;28;20481;-72
2021/09/16 08:29:39;;;;;;;18.15;9.95;;;;;;;;;;8178620;28;20054;-72
2021/09/16 08:33:48;;;;;;;18.90;10.40;;;;;;;;;;8229038;28;20357;-71
2021/09/16 08:37:53;;;;;;;20.63;9.73;;;;;;;;;;8212193;28;20489;-73
2021/09/16 08:41:59;;;;;;;20.95;11.25;;;;;;;;;;8211430;28;20460;-71
2021/09/16 08:46:04;;;;;;;22.83;11.50;;;;;;;;;;8212120;28;20514;-72
2021/09/16 08:50:12;;;;;;;24.90;12.43;;;;;;;;;;8111576;28;20505;-72
2021/09/16 08:54:20;;;;;;;20.77;11.57;;;;;;;;;;8178282;28;20380;-72
2021/09/16 08:58:31;;;;;;;24.95;11.57;;;;;;;;;;8198082;28;20369;-72
2021/09/16 09:02:38;;;;;;;21.13;11.52;;;;;;;;;;8176675;28;20050;-72
2021/09/16 09:06:44;;;;;;;19.58;10.65;;;;;;;;;;8195629;28;20505;-72
2021/09/16 09:11:00;;;;;;;20.38;10.60;;;;;;;;;;8194949;28;20369;-71
2021/09/16 09:15:10;;;;;;;24.48;10.77;;;;;;;;;;8176929;28;20310;-72
2021/09/16 09:19:21;;;;;;;25.80;10.63;;;;;;;;;;8144899;28;20469;-72
2021/09/16 09:23:30;;;;;;;22.45;11.13;;;;;;;;;;8178233;28;20042;-71
2021/09/16 09:27:47;;;;;;;26.60;10.73;;;;;;;;;;8196225;28;20404;-71
2021/09/16 09:32:07;;;;;;;27.90;11.25;;;;;;;;;;8195159;28;20351;-72
2021/09/16 09:36:20;;;;;;;26.50;12.23;;;;;;;;;;8177372;28;20041;-72
2021/09/16 09:40:33;;;;;;;21.15;10.95;;;;;;;;;;8175387;28;20157;-71
2021/09/16 09:44:39;;;;;;;19.88;10.57;;;;;;;;;;8194590;28;20449;-72
2021/09/16 09:49:05;;;;;;;23.95;11.23;;;;;;;;;;8195104;28;20332;-72
2021/09/16 09:53:14;;;;;;;21.30;11.27;;;;;;;;;;8172535;28;20477;-72
2021/09/16 09:57:20;;;;;;;27.08;11.73;;;;;;;;;;8190418;28;20504;-72
2021/09/16 10:01:35;;;;;;;32.10;12.20;;;;;;;;;;8177309;28;20381;-72
2021/09/16 10:05:41;;;;;;;24.88;11.52;;;;;;;;;;8176563;28;20445;-71
2021/09/16 10:09:57;;;;;;;25.30;11.77;;;;;;;;;;8179043;28;20473;-72
2021/09/16 10:14:03;;;;;;;31.70;12.32;;;;;;;;;;8198846;28;20481;-72
2021/09/16 10:18:08;;;;;;;23.13;11.68;;;;;;;;;;8181770;28;20473;-72
2021/09/16 10:22:14;;;;;;;26.75;10.93;;;;;;;;;;8199875;28;20473;-72
2021/09/16 10:26:43;;;;;;;25.13;11.40;;;;;;;;;;8183105;28;20489;-72
2021/09/16 10:30:51;;;;;;;18.03;11.10;;;;;;;;;;8185211;28;20073;-71
2021/09/16 10:34:58;;;;;;;22.05;11.38;;;;;;;;;;8199691;28;20049;-72
2021/09/16 10:39:18;;;;;;;21.65;10.57;;;;;;;;;;8182641;28;20460;-71
2021/09/16 10:43:25;;;;;;;17.95;10.38;;;;;;;;;;8200383;28;20352;-71
2021/09/16 10:47:30;;;;;;;25.70;11.23;;;;;;;;;;8182250;28;20354;-72
2021/09/16 10:51:45;;;;;;;16.77;9.93;;;;;;;;;;8199116;28;20783;-72
2021/09/16 10:55:50;;;;;;;24.63;10.73;;;;;;;;;;8182300;28;20488;-71
2021/09/16 11:00:17;;;;;;;22.92;9.02;;;;;;;;;;8421440;27;21124;-71
2021/09/16 11:04:56;;;;;;;16.25;9.60;;;;;;;;;;8421171;27;20886;-72
2021/09/16 11:09:04;;;;;;;;;;;;;;;;;;8386552;28;20735;-72
2021/09/16 11:13:53;;;;;;;19.92;8.02;;;;;;;;;;8387901;28;19923;-72
2021/09/16 11:18:14;;;;;;;15.18;8.25;;;;;;;;;;8385553;28;20500;-71
2021/09/16 11:22:31;;;;;;;19.33;7.68;;;;;;;;;;8386290;27;20448;-72
2021/09/16 11:26:46;;;;;;;14.23;6.80;;;;;;;;;;8421420;27;20833;-73
2021/09/16 11:31:02;;;;;;;11.07;7.45;;;;;;;;;;8419446;27;20861;-72
2021/09/16 11:35:21;;;;;;;16.20;6.95;;;;;;;;;;8421129;27;21067;-72
2021/09/16 11:39:38;;;;;;;16.65;6.85;;;;;;;;;;8419146;27;20553;-72
2021/09/16 11:44:09;;;;;;;16.75;6.13;;;;;;;;;;8419814;27;20622;-72
2021/09/16 11:48:26;;;;;;;9.68;4.45;;;;;;;;;;8378515;27;1265301;-72
2021/09/16 11:52:45;;;;;;;8.40;4.20;;;;;;;;;;8420638;27;20840;-73
2021/09/16 11:57:04;;;;;;;8.15;3.78;;;;;;;;;;8378623;27;1260163;-72
2021/09/16 12:01:22;;;;;;;6.13;3.53;;;;;;;;;;8421581;27;21112;-72
2021/09/16 12:05:57;;;;;;;6.70;3.95;;;;;;;;;;8377731;27;1261491;-72
2021/09/16 12:10:04;;;;;;;9.18;3.80;;;;;;;;;;8334263;28;20323;-72
2021/09/16 12:14:19;;;;;;;7.83;4.00;;;;;;;;;;8380060;27;1250753;-72
2021/09/16 12:18:36;;;;;;;7.35;3.22;;;;;;;;;;8420039;27;20833;-72
2021/09/16 12:22:52;;;;;;;8.68;3.40;;;;;;;;;;8419363;27;20629;-72
2021/09/16 12:27:14;;;;;;;8.52;3.15;;;;;;;;;;8420742;27;21212;-72
2021/09/16 12:31:36;;;;;;;5.72;3.05;;;;;;;;;;8385599;27;20547;-72
2021/09/16 12:36:13;;;;;;;7.20;2.38;;;;;;;;;;8420794;27;21055;-72
2021/09/16 12:40:30;;;;;;;3.97;3.00;;;;;;;;;;8420700;27;20868;-72
2021/09/16 12:44:46;;;;;;;5.55;3.30;;;;;;;;;;8421087;27;21116;-72
2021/09/16 12:49:02;;;;;;;9.27;3.42;;;;;;;;;;8378908;27;1263014;-72
2021/09/16 12:53:16;;;;;;;4.95;3.42;;;;;;;;;;8380122;27;1275861;-73
2021/09/16 12:57:40;;;;;;;4.78;2.83;;;;;;;;;;8421699;27;21075;-72
2021/09/16 13:02:19;;;;;;;12.52;3.83;;;;;;;;;;8423154;27;21088;-72
2021/09/16 13:06:36;;;;;;;5.47;3.20;;;;;;;;;;8420559;27;20554;-72
2021/09/16 13:10:52;;;;;;;5.25;3.90;;;;;;;;;;8422168;27;21131;-72
2021/09/16 13:15:11;;;;;;;5.75;3.10;;;;;;;;;;8387627;27;20927;-72
2021/09/16 13:19:28;;;;;;;6.72;3.50;;;;;;;;;;8422245;27;20838;-71
2021/09/16 13:23:43;;;;;;;12.65;3.00;;;;;;;;;;8424777;27;20810;-72
2021/09/16 13:28:01;;;;;;;6.93;3.38;;;;;;;;;;8425221;27;20906;-72
2021/09/16 13:32:28;;;;;;;6.90;2.83;;;;;;;;;;8324431;27;1955373;-72
2021/09/16 13:36:44;;;;;;;8.73;3.90;;;;;;;;;;8421828;27;20822;-71
2021/09/16 13:41:00;;;;;;;5.38;2.97;;;;;;;;;;8424192;27;20618;-72
2021/09/16 13:45:18;;;;;;;7.00;3.83;;;;;;;;;;8423379;27;21103;-72
2021/09/16 13:49:35;;;;;;;5.40;3.50;;;;;;;;;;8422019;27;21147;-71
2021/09/16 13:53:49;;;;;;;6.63;3.88;;;;;;;;;;8381943;27;1251754;-71
2021/09/16 13:58:05;;;;;;;6.05;3.97;;;;;;;;;;8422854;27;20906;-73
2021/09/16 14:02:21;;;;;;;11.30;3.95;;;;;;;;;;8420555;27;21124;-72
2021/09/16 14:06:38;;;;;;;10.10;4.07;;;;;;;;;;8419768;27;21058;-72
2021/09/16 14:10:54;;;;;;;10.07;4.50;;;;;;;;;;8420639;27;20861;-73
2021/09/16 14:15:11;;;;;;;10.27;4.55;;;;;;;;;;8419766;27;20868;-72
2021/09/16 14:19:27;;;;;;;10.70;4.75;;;;;;;;;;8419382;27;20629;-71
2021/09/16 14:23:43;;;;;;;10.15;4.43;;;;;;;;;;8419592;27;20622;-71
2021/09/16 14:28:00;;;;;;;15.82;7.10;;;;;;;;;;8421518;27;21131;-73
2021/09/16 14:32:15;;;;;;;12.90;5.32;;;;;;;;;;8420966;27;21127;-72
2021/09/16 14:36:30;;;;;;;22.85;9.80;;;;;;;;;;8377154;27;1266331;-71
2021/09/16 14:40:45;;;;;;;11.47;6.00;;;;;;;;;;8378184;27;1258530;-72
2021/09/16 14:45:15;;;;;;;18.10;6.10;;;;;;;;;;8321395;27;1944638;-73
2021/09/16 14:49:29;;;;;;;17.77;6.07;;;;;;;;;;8380393;27;1262279;-72
2021/09/16 14:53:46;;;;;;;11.40;5.82;;;;;;;;;;8419460;27;21055;-72
2021/09/16 14:58:02;;;;;;;20.52;7.40;;;;;;;;;;8421866;27;20882;-72
2021/09/16 15:02:19;;;;;;;13.70;7.03;;;;;;;;;;8420340;27;21020;-72
2021/09/16 15:06:35;;;;;;;12.07;5.80;;;;;;;;;;8420723;27;21091;-72
2021/09/16 15:10:54;;;;;;;15.35;5.95;;;;;;;;;;8421773;27;21035;-72
2021/09/16 15:15:11;;;;;;;15.43;6.32;;;;;;;;;;8420250;27;20557;-72
2021/09/16 15:19:26;;;;;;;13.43;6.97;;;;;;;;;;8376932;27;1260219;-71
2021/09/16 15:23:42;;;;;;;16.13;6.55;;;;;;;;;;8419708;27;20929;-73
2021/09/16 15:27:59;;;;;;;26.15;10.45;;;;;;;;;;8419898;27;20871;-72
2021/09/16 15:32:16;;;;;;;10.98;6.07;;;;;;;;;;8419951;27;21114;-72
2021/09/16 15:36:32;;;;;;;17.77;7.55;;;;;;;;;;8422555;27;20871;-74
2021/09/16 15:40:50;;;;;;;23.38;10.35;;;;;;;;;;8419739;27;21043;-72
2021/09/16 15:45:08;;;;;;;21.67;9.40;;;;;;;;;;8420260;27;20895;-71
2021/09/16 15:49:25;;;;;;;22.70;9.48;;;;;;;;;;8422427;27;21096;-72
2021/09/16 15:53:40;;;;;;;24.67;8.63;;;;;;;;;;8419796;27;21127;-72
2021/09/16 15:57:56;;;;;;;28.88;9.13;;;;;;;;;;8377082;27;1256760;-72
2021/09/16 16:02:13;;;;;;;27.85;9.00;;;;;;;;;;8419952;27;20872;-72
2021/09/16 16:06:29;;;;;;;19.42;8.48;;;;;;;;;;8377801;27;1251380;-71
2021/09/16 16:10:45;;;;;;;15.13;7.50;;;;;;;;;;8419475;27;20860;-72
2021/09/16 16:15:01;;;;;;;13.23;6.75;;;;;;;;;;8353214;27;1262856;-72
2021/09/16 16:19:18;;;;;;;11.00;6.63;;;;;;;;;;8420935;27;20878;-72
2021/09/16 16:23:34;;;;;;;12.90;6.72;;;;;;;;;;8419453;27;20554;-71
2021/09/16 16:27:50;;;;;;;12.73;7.00;;;;;;;;;;8419872;27;20868;-72
2021/09/16 16:32:06;;;;;;;19.00;10.15;;;;;;;;;;8419842;27;21063;-72
2021/09/16 16:36:23;;;;;;;18.65;11.18;;;;;;;;;;8419590;27;20565;-72
2021/09/16 16:40:40;;;;;;;14.60;7.90;;;;;;;;;;8419520;27;20549;-73
2021/09/16 16:44:56;;;;;;;17.52;7.88;;;;;;;;;;8421583;27;21107;-71
2021/09/16 16:49:12;;;;;;;11.63;7.72;;;;;;;;;;8419518;27;21115;-72
2021/09/16 16:53:28;;;;;;;21.35;12.38;;;;;;;;;;8419639;27;20899;-71
2021/09/16 16:57:42;;;;;;;16.88;7.47;;;;;;;;;;8376370;27;1269503;-73
2021/09/16 17:01:58;;;;;;;13.68;6.35;;;;;;;;;;8419246;27;21112;-73
2021/09/16 17:06:14;;;;;;;8.57;5.93;;;;;;;;;;8419534;27;20899;-73
2021/09/16 17:10:28;;;;;;;13.32;5.68;;;;;;;;;;8377895;27;1248915;-73
2021/09/16 17:14:44;;;;;;;9.82;5.65;;;;;;;;;;8419999;27;21104;-72
2021/09/16 17:19:01;;;;;;;5.95;4.50;;;;;;;;;;8419417;27;20849;-73
2021/09/16 17:23:17;;;;;;;9.93;4.25;;;;;;;;;;8420811;27;20860;-74
2021/09/16 17:27:33;;;;;;;6.30;3.72;;;;;;;;;;8419301;27;21136;-73
2021/09/16 17:31:50;;;;;;;5.68;3.50;;;;;;;;;;8419389;27;21043;-76
2021/09/16 17:36:06;;;;;;;10.82;4.43;;;;;;;;;;8419738;27;20842;-76
2021/09/16 17:40:23;;;;;;;8.05;4.15;;;;;;;;;;8419356;27;20906;-77
2021/09/16 17:44:39;;;;;;;6.13;3.53;;;;;;;;;;8419664;27;20879;-76
2021/09/16 17:48:55;;;;;;;6.22;3.10;;;;;;;;;;8421556;27;21119;-78
2021/09/16 17:53:12;;;;;;;13.35;8.05;;;;;;;;;;8420957;27;20898;-77
2021/09/16 17:57:28;;;;;;;21.63;14.40;;;;;;;;;;8421944;27;20900;-76
2021/09/16 18:01:44;;;;;;;13.63;8.70;;;;;;;;;;8424860;27;21035;-77
2021/09/16 18:06:01;;;;;;;9.52;5.63;;;;;;;;;;8421654;27;20641;-76
2021/09/16 18:10:20;;;;;;;10.57;5.30;;;;;;;;;;8427151;27;21042;-76
2021/09/16 18:14:36;;;;;;;9.35;5.47;;;;;;;;;;8423300;27;20861;-76
2021/09/16 18:18:52;;;;;;;8.65;5.40;;;;;;;;;;8425102;27;21131;-77
2021/09/16 18:23:09;;;;;;;6.72;4.68;;;;;;;;;;8428449;27;21055;-76
2021/09/16 18:27:25;;;;;;;11.38;5.20;;;;;;;;;;8421832;27;21100;-76
2021/09/16 18:31:41;;;;;;;11.02;5.90;;;;;;;;;;8380413;27;1262870;-76
2021/09/16 18:36:03;;;;;;;7.45;5.05;;;;;;;;;;8425538;27;21426;-77
2021/09/16 18:40:18;;;;;;;12.10;8.10;;;;;;;;;;8388385;28;20483;-77
2021/09/16 18:44:24;;;;;;;11.63;7.93;;;;;;;;;;8385885;28;20396;-77
2021/09/16 18:48:30;;;;;;;11.45;6.60;;;;;;;;;;8386945;28;20051;-77
2021/09/16 18:52:36;;;;;;;12.38;7.50;;;;;;;;;;8386105;28;20074;-77
2021/09/16 18:56:41;;;;;;;9.85;6.65;;;;;;;;;;8385085;28;20061;-77
2021/09/16 19:00:47;;;;;;;19.15;8.70;;;;;;;;;;8386026;28;20366;-77
2021/09/16 19:04:53;;;;;;;9.90;6.90;;;;;;;;;;8387844;28;20048;-77
2021/09/16 19:08:58;;;;;;;13.57;7.40;;;;;;;;;;8385784;28;20345;-78
2021/09/16 19:13:04;;;;;;;9.95;5.38;;;;;;;;;;8383494;28;20507;-77
2021/09/16 19:17:13;;;;;;;8.00;5.53;;;;;;;;;;8385582;28;20051;-77
2021/09/16 19:21:19;;;;;;;9.80;4.03;;;;;;;;;;8382986;28;20345;-76
2021/09/16 19:25:25;;;;;;;7.97;4.32;;;;;;;;;;8385594;28;20051;-76
2021/09/16 19:29:31;;;;;;;9.05;5.07;;;;;;;;;;8384885;28;20383;-77
2021/09/16 19:33:37;;;;;;;12.52;6.57;;;;;;;;;;8384112;28;20368;-76
2021/09/16 19:37:45;;;;;;;8.37;5.47;;;;;;;;;;8383751;28;20370;-78
2021/09/16 19:41:51;;;;;;;7.22;5.07;;;;;;;;;;8278626;28;20318;-76
2021/09/16 19:45:56;;;;;;;7.53;4.85;;;;;;;;;;8237916;28;20068;-77
2021/09/16 19:50:02;;;;;;;11.48;4.90;;;;;;;;;;8229321;28;20478;-77
2021/09/16 19:54:09;;;;;;;8.95;5.13;;;;;;;;;;8230259;28;20053;-76
2021/09/16 19:58:14;;;;;;;7.00;5.47;;;;;;;;;;8212560;28;20453;-77
2021/09/16 20:02:19;;;;;;;8.23;5.13;;;;;;;;;;8246039;28;20482;-76
2021/09/16 20:06:25;;;;;;;9.25;5.57;;;;;;;;;;8228755;28;20499;-76
2021/09/16 20:10:30;;;;;;;12.57;5.82;;;;;;;;;;8228334;28;20472;-76
2021/09/16 20:14:35;;;;;;;12.45;6.15;;;;;;;;;;8228943;28;20587;-76
2021/09/16 20:18:41;;;;;;;7.75;4.85;;;;;;;;;;8228096;28;20648;-76
2021/09/16 20:22:47;;;;;;;6.25;4.18;;;;;;;;;;8228366;28;20326;-76
2021/09/16 20:26:52;;;;;;;8.68;5.03;;;;;;;;;;8228222;28;20116;-76
2021/09/16 20:30:57;;;;;;;7.00;4.95;;;;;;;;;;8229398;28;20364;-76
2021/09/16 20:35:04;;;;;;;7.28;5.30;;;;;;;;;;8229294;28;20498;-78
2021/09/16 20:39:09;;;;;;;9.57;4.83;;;;;;;;;;8228602;28;20163;-76
2021/09/16 20:43:14;;;;;;;7.68;5.00;;;;;;;;;;8242701;28;20049;-76
2021/09/16 20:47:19;;;;;;;8.70;5.10;;;;;;;;;;8230012;28;20403;-76
2021/09/16 20:51:24;;;;;;;6.68;4.78;;;;;;;;;;8230768;28;20477;-76
2021/09/16 20:55:30;;;;;;;11.30;5.72;;;;;;;;;;8227545;28;20384;-78
2021/09/16 20:59:36;;;;;;;9.65;5.78;;;;;;;;;;8231025;28;20049;-75
2021/09/16 21:03:42;;;;;;;13.98;6.50;;;;;;;;;;8232180;28;20376;-76
2021/09/16 21:07:47;;;;;;;9.50;5.18;;;;;;;;;;8246583;28;20459;-76
2021/09/16 21:11:52;;;;;;;8.02;5.45;;;;;;;;;;8244437;28;20357;-76
2021/09/16 21:15:58;;;;;;;12.57;6.07;;;;;;;;;;8235630;28;20372;-77
2021/09/16 21:20:06;;;;;;;11.60;5.88;;;;;;;;;;8246263;28;20384;-76
2021/09/16 21:24:11;;;;;;;9.85;6.15;;;;;;;;;;8233198;28;20461;-75
2021/09/16 21:28:16;;;;;;;9.18;6.10;;;;;;;;;;8235077;28;20369;-76
2021/09/16 21:32:21;;;;;;;12.38;6.72;;;;;;;;;;8238496;28;20098;-77
2021/09/16 21:36:25;;;;;;;13.50;6.95;;;;;;;;;;8201743;28;20453;-75
2021/09/16 21:40:31;;;;;;;10.07;6.15;;;;;;;;;;8181524;28;20441;-77
2021/09/16 21:44:36;;;;;;;12.20;5.78;;;;;;;;;;8197052;28;20108;-76
2021/09/16 21:48:41;;;;;;;8.18;5.30;;;;;;;;;;8214430;28;20487;-76
2021/09/16 21:52:46;;;;;;;16.25;7.78;;;;;;;;;;8199250;28;21097;-76
2021/09/16 21:56:52;;;;;;;11.57;6.45;;;;;;;;;;8199969;28;20354;-77
2021/09/16 22:00:56;;;;;;;7.90;5.95;;;;;;;;;;8203674;28;20044;-77
2021/09/16 22:05:01;;;;;;;10.85;6.82;;;;;;;;;;8194859;28;20357;-76
2021/09/16 22:09:08;;;;;;;10.20;6.72;;;;;;;;;;8200946;28;20049;-75
2021/09/16 22:13:13;;;;;;;12.02;7.53;;;;;;;;;;8198904;28;20381;-76
2021/09/16 22:17:18;;;;;;;11.68;7.90;;;;;;;;;;8196467;28;20496;-77
2021/09/16 22:21:23;;;;;;;17.05;8.57;;;;;;;;;;8200277;28;20335;-76
2021/09/16 22:25:29;;;;;;;16.13;7.72;;;;;;;;;;8195047;28;20417;-77
2021/09/16 22:29:34;;;;;;;11.50;7.70;;;;;;;;;;8197443;28;20337;-77
2021/09/16 22:33:41;;;;;;;15.35;8.57;;;;;;;;;;8192314;28;20058;-76
2021/09/16 22:37:45;;;;;;;13.60;8.70;;;;;;;;;;8194174;28;20384;-78
2021/09/16 22:41:50;;;;;;;16.52;8.80;;;;;;;;;;8192668;28;20469;-77
2021/09/16 22:45:55;;;;;;;12.23;8.52;;;;;;;;;;8194759;28;20045;-77
2021/09/16 22:50:00;;;;;;;13.93;9.23;;;;;;;;;;8192129;28;20361;-78
2021/09/16 22:54:06;;;;;;;15.18;8.45;;;;;;;;;;8194071;28;20405;-77
2021/09/16 22:58:11;;;;;;;14.55;8.68;;;;;;;;;;8191927;28;20404;-78
2021/09/16 23:02:17;;;;;;;13.55;8.88;;;;;;;;;;8191314;28;20053;-78
2021/09/16 23:06:22;;;;;;;19.23;10.65;;;;;;;;;;8192003;28;20481;-77
2021/09/16 23:10:30;;;;;;;18.07;11.17;;;;;;;;;;7849993;28;10000787;-77
2021/09/16 23:14:35;;;;;;;16.13;10.32;;;;;;;;;;8193166;28;20561;-77
2021/09/16 23:18:42;;;;;;;16.47;10.67;;;;;;;;;;8191413;28;20367;-77
2021/09/16 23:22:48;;;;;;;19.08;10.55;;;;;;;;;;8196523;28;20390;-77
2021/09/16 23:26:53;;;;;;;15.20;9.88;;;;;;;;;;8197744;28;20357;-76
2021/09/16 23:30:58;;;;;;;16.15;10.20;;;;;;;;;;8200287;28;20473;-77
2021/09/16 23:35:04;;;;;;;15.10;9.13;;;;;;;;;;8196657;28;20346;-76
2021/09/16 23:39:09;;;;;;;14.73;9.85;;;;;;;;;;8195703;28;20458;-77
2021/09/16 23:43:14;;;;;;;16.45;9.85;;;;;;;;;;8200017;28;20441;-76
2021/09/16 23:47:19;;;;;;;16.65;9.73;;;;;;;;;;8212668;28;20135;-76
2021/09/16 23:51:24;;;;;;;15.65;10.02;;;;;;;;;;8196539;28;20373;-78
2021/09/16 23:55:30;;;;;;;16.13;9.70;;;;;;;;;;8196903;28;20365;-76
2021/09/16 23:59:35;;;;;;;19.10;10.13;;;;;;;;;;8196337;28;20076;-76
